Time;durP1;ratioP1;P1;durP2;ratioP2;P2;SDS_P1;SDS_P2;PMS_P1;PMS_P2;Temp;Humidity;BMP_temperature;BMP_pressure;BME280_temperature;BME280_humidity;BME280_pressure;Samples;Min_cycle;Max_cycle;Signal;HPM_P1;HPM_P2
2020/12/13 00:00:01;;;;;;;;;;;10.50;83.20;;;;;;5135482;27;19915;-81
2020/12/13 00:02:27;;;;;;;;;;;10.50;83.20;;;;;;5117455;27;19916;-81
2020/12/13 00:04:52;;;;;;;;;;;10.50;83.20;;;;;;5127838;27;19918;-81
2020/12/13 00:07:18;;;;;;;;;;;10.50;83.20;;;;;;5096675;28;19919;-81
2020/12/13 00:09:43;;;;;;;;;;;10.50;83.20;;;;;;5112062;27;19919;-81
2020/12/13 00:12:09;;;;;;;;;;;10.40;83.20;;;;;;5135419;27;19961;-81
2020/12/13 00:14:34;;;;;;;;;;;10.50;83.30;;;;;;5117327;27;19972;-81
2020/12/13 00:17:00;;;;;;;;;;;10.40;83.20;;;;;;5117239;27;19922;-81
2020/12/13 00:19:25;;;;;;;;;;;10.40;83.20;;;;;;5117017;27;20405;-81
2020/12/13 00:21:52;;;;;;;;;;;10.40;83.20;;;;;;5117113;27;20421;-81
2020/12/13 00:24:18;;;;;;;;;;;10.40;83.20;;;;;;5114257;28;19926;-81
2020/12/13 00:26:43;;;;;;;;;;;10.40;83.20;;;;;;5096696;28;19912;-81
2020/12/13 00:29:09;;;;;;;;;;;10.40;83.20;;;;;;5114523;28;19916;-81
2020/12/13 00:31:34;;;;;;;;;;;10.50;83.30;;;;;;5096630;28;19911;-81
2020/12/13 00:34:00;;;;;;;;;;;10.50;83.30;;;;;;5096469;28;20009;-81
2020/12/13 00:36:25;;;;;;;;;;;10.40;83.20;;;;;;5096071;28;19908;-81
2020/12/13 00:38:51;;;;;;;;;;;10.40;83.20;;;;;;5085008;28;19915;-81
2020/12/13 00:41:16;;;;;;;;;;;10.40;83.20;;;;;;5113280;28;19998;-81
2020/12/13 00:43:42;;;;;;;;;;;10.40;83.30;;;;;;5078318;28;20011;-81
2020/12/13 00:46:07;;;;;;;;;;;10.40;83.20;;;;;;5113176;28;19912;-81
2020/12/13 00:48:33;;;;;;;;;;;10.40;83.30;;;;;;5095207;28;19915;-81
2020/12/13 00:50:58;;;;;;;;;;;10.40;83.20;;;;;;5095257;28;19916;-81
2020/12/13 00:53:24;;;;;;;;;;;10.40;83.20;;;;;;5094897;28;19912;-81
2020/12/13 00:55:49;;;;;;;;;;;10.40;83.20;;;;;;5095712;28;19934;-81
2020/12/13 00:58:15;;;;;;;;;;;10.40;83.30;;;;;;5096966;27;20341;-81
2020/12/13 01:00:41;;;;;;;;;;;10.40;83.20;;;;;;5116319;27;19912;-81
2020/12/13 01:03:06;;;;;;;;;;;10.40;83.20;;;;;;5115853;27;19958;-81
2020/12/13 01:05:32;;;;;;;;;;;10.40;83.20;;;;;;5116238;27;19911;-81
2020/12/13 01:07:58;;;;;;;;;;;10.40;83.20;;;;;;5115977;27;19961;-81
2020/12/13 01:10:23;;;;;;;;;;;10.40;83.20;;;;;;5115736;27;19908;-81
2020/12/13 01:12:49;;;;;;;;;;;10.40;83.20;;;;;;5116023;27;19919;-81
2020/12/13 01:15:15;;;;;;;;;;;10.40;83.20;;;;;;5134337;27;19912;-81
2020/12/13 01:17:43;;;;;;;;;;;10.40;83.20;;;;;;5116184;27;20272;-81
2020/12/13 01:20:09;;;;;;;;;;;10.40;83.20;;;;;;5115790;27;19956;-81
2020/12/13 01:22:38;;;;;;;;;;;10.40;83.30;;;;;;5116045;27;20360;-81
2020/12/13 01:25:04;;;;;;;;;;;10.40;83.30;;;;;;5115650;27;20446;-81
2020/12/13 01:27:29;;;;;;;;;;;10.40;83.30;;;;;;5134486;27;20013;-81
2020/12/13 01:29:55;;;;;;;;;;;10.40;83.30;;;;;;5116013;27;20388;-81
2020/12/13 01:32:20;;;;;;;;;;;10.40;83.30;;;;;;5115661;28;19918;-81
2020/12/13 01:34:46;;;;;;;;;;;10.40;83.30;;;;;;5134366;28;19912;-81
2020/12/13 01:37:11;;;;;;;;;;;10.30;83.30;;;;;;5115118;28;19912;-81
2020/12/13 01:39:37;;;;;;;;;;;10.40;83.40;;;;;;5115743;28;20319;-81
2020/12/13 01:42:02;;;;;;;;;;;10.30;83.30;;;;;;5134282;28;19946;-81
2020/12/13 01:44:28;;;;;;;;;;;10.40;83.40;;;;;;5115538;28;19916;-81
2020/12/13 01:46:54;;;;;;;;;;;10.30;83.30;;;;;;5134256;28;19919;-81
2020/12/13 01:49:19;;;;;;;;;;;10.30;83.30;;;;;;5115611;28;19915;-81
2020/12/13 01:54:14;;;;;;;;;;;10.30;83.30;;;;;;5133955;28;20005;-81
2020/12/13 01:56:47;;;;;;;;;;;10.30;83.30;;;;;;5134062;28;19961;-81
2020/12/13 01:59:16;;;;;;;;;;;10.40;83.40;;;;;;5115383;28;19912;-81
2020/12/13 02:01:44;;;;;;;;;;;10.40;83.30;;;;;;5134060;28;20036;-81
2020/12/13 02:04:10;;;;;;;;;;;10.30;83.30;;;;;;5115323;28;20362;-81
2020/12/13 02:06:37;;;;;;;;;;;10.40;83.30;;;;;;5115601;28;19911;-81
2020/12/13 02:09:03;;;;;;;;;;;10.40;83.30;;;;;;5133974;28;19908;-82
2020/12/13 02:11:31;;;;;;;;;;;10.40;83.30;;;;;;5115191;28;19907;-82
2020/12/13 02:13:57;;;;;;;;;;;10.40;83.30;;;;;;5115847;28;19957;-82
2020/12/13 02:16:22;;;;;;;;;;;10.30;83.30;;;;;;5133677;28;19911;-81
2020/12/13 02:18:48;;;;;;;;;;;10.40;83.30;;;;;;5097969;28;19985;-81
2020/12/13 02:21:14;;;;;;;;;;;10.40;83.30;;;;;;5094647;28;19912;-81
2020/12/13 02:23:40;;;;;;;;;;;10.40;83.30;;;;;;5094894;28;20103;-81
2020/12/13 02:26:09;;;;;;;;;;;10.40;83.30;;;;;;5094873;28;19943;-81
2020/12/13 02:28:35;;;;;;;;;;;10.40;83.30;;;;;;5095049;28;19938;-81
2020/12/13 02:31:02;;;;;;;;;;;10.40;83.30;;;;;;5113205;28;19957;-81
2020/12/13 02:33:28;;;;;;;;;;;10.40;83.30;;;;;;5094604;28;19907;-81
2020/12/13 02:35:53;;;;;;;;;;;10.40;83.30;;;;;;5095075;28;20403;-81
2020/12/13 02:38:19;;;;;;;;;;;10.40;83.30;;;;;;5112858;28;19912;-81
2020/12/13 02:40:44;;;;;;;;;;;10.40;83.30;;;;;;5078193;28;19912;-81
2020/12/13 02:43:10;;;;;;;;;;;10.40;83.30;;;;;;5094499;28;19920;-82
2020/12/13 02:45:35;;;;;;;;;;;10.40;83.30;;;;;;5113053;28;20365;-81
2020/12/13 02:48:01;;;;;;;;;;;10.40;83.30;;;;;;5113864;28;19908;-81
2020/12/13 02:50:26;;;;;;;;;;;10.40;83.30;;;;;;5116422;28;19908;-82
2020/12/13 02:52:52;;;;;;;;;;;10.40;83.30;;;;;;5098506;28;20381;-81
2020/12/13 02:55:17;;;;;;;;;;;10.40;83.30;;;;;;5098072;28;19930;-81
2020/12/13 02:57:43;;;;;;;;;;;10.40;83.90;;;;;;5081314;28;19951;-81
2020/12/13 03:00:08;;;;;;;;;;;10.40;83.40;;;;;;5096934;28;20266;-81
2020/12/13 03:02:34;;;;;;;;;;;10.40;83.40;;;;;;5097168;28;19920;-81
2020/12/13 03:04:59;;;;;;;;;;;10.40;83.40;;;;;;5131273;27;19919;-81
2020/12/13 03:07:25;;;;;;;;;;;10.40;83.40;;;;;;5136444;27;20370;-81
2020/12/13 03:09:50;;;;;;;;;;;10.40;83.30;;;;;;5137024;27;19911;-82
2020/12/13 03:12:16;;;;;;;;;;;10.40;83.40;;;;;;5118180;27;19915;-81
2020/12/13 03:14:41;;;;;;;;;;;10.40;83.40;;;;;;5118437;27;19918;-81
2020/12/13 03:17:07;;;;;;;;;;;10.40;83.30;;;;;;5136714;27;19997;-81
2020/12/13 03:19:33;;;;;;;;;;;10.40;83.40;;;;;;5101448;27;19912;-81
2020/12/13 03:21:58;;;;;;;;;;;10.40;83.40;;;;;;5118251;27;19914;-81
2020/12/13 03:24:24;;;;;;;;;;;10.40;83.40;;;;;;5117874;27;20010;-81
2020/12/13 03:26:49;;;;;;;;;;;10.40;83.40;;;;;;5136593;27;19915;-82
2020/12/13 03:29:15;;;;;;;;;;;10.40;83.40;;;;;;5136252;27;19907;-81
2020/12/13 03:31:40;;;;;;;;;;;10.40;83.40;;;;;;5136559;27;19915;-81
2020/12/13 03:34:06;;;;;;;;;;;10.40;83.40;;;;;;5117961;27;19912;-81
2020/12/13 03:36:31;;;;;;;;;;;10.40;83.40;;;;;;5136108;27;19911;-82
2020/12/13 03:38:57;;;;;;;;;;;10.40;83.40;;;;;;5101073;27;19911;-81
2020/12/13 03:41:23;;;;;;;;;;;10.40;83.40;;;;;;5117553;27;20378;-81
2020/12/13 03:43:48;;;;;;;;;;;10.40;83.30;;;;;;5117854;27;19964;-81
2020/12/13 03:46:14;;;;;;;;;;;10.40;83.30;;;;;;5117552;27;20002;-81
2020/12/13 03:48:39;;;;;;;;;;;10.40;83.30;;;;;;5117841;27;19947;-81
2020/12/13 03:51:05;;;;;;;;;;;10.40;83.30;;;;;;5100740;27;19919;-82
2020/12/13 03:53:30;;;;;;;;;;;10.40;83.30;;;;;;5135769;27;19915;-82
2020/12/13 03:55:56;;;;;;;;;;;10.40;83.30;;;;;;5100470;27;19951;-81
2020/12/13 03:58:21;;;;;;;;;;;10.40;83.30;;;;;;5135490;27;19907;-82
2020/12/13 04:00:47;;;;;;;;;;;10.40;83.30;;;;;;5135546;27;19911;-82
2020/12/13 04:03:12;;;;;;;;;;;10.40;83.30;;;;;;5100246;27;19941;-82
2020/12/13 04:05:38;;;;;;;;;;;10.40;83.30;;;;;;5135796;27;19911;-81
2020/12/13 04:08:03;;;;;;;;;;;10.40;83.30;;;;;;5135806;27;19908;-82
2020/12/13 04:10:29;;;;;;;;;;;10.40;83.30;;;;;;5117213;27;20763;-82
2020/12/13 04:12:54;;;;;;;;;;;10.40;83.30;;;;;;5135801;27;19915;-82
2020/12/13 04:15:20;;;;;;;;;;;10.40;83.30;;;;;;5116878;27;19915;-81
2020/12/13 04:17:45;;;;;;;;;;;10.40;83.30;;;;;;5135414;27;19994;-82
2020/12/13 04:20:11;;;;;;;;;;;10.40;83.30;;;;;;5116863;27;19907;-81
2020/12/13 04:22:37;;;;;;;;;;;10.40;83.30;;;;;;5117104;27;19912;-81
2020/12/13 04:25:03;;;;;;;;;;;10.40;83.40;;;;;;5117299;27;19922;-81
2020/12/13 04:27:28;;;;;;;;;;;10.40;83.40;;;;;;5116759;27;19914;-82
2020/12/13 04:29:54;;;;;;;;;;;10.40;83.40;;;;;;5116934;27;20354;-82
2020/12/13 04:32:19;;;;;;;;;;;10.40;83.40;;;;;;5135040;27;19907;-81
2020/12/13 04:34:45;;;;;;;;;;;10.40;83.40;;;;;;5097817;28;19916;-81
2020/12/13 04:37:10;;;;;;;;;;;10.40;83.50;;;;;;5079160;28;19923;-82
2020/12/13 04:39:36;;;;;;;;;;;10.40;83.60;;;;;;5114715;28;19908;-82
2020/12/13 04:42:05;;;;;;;;;;;10.40;83.60;;;;;;5096403;28;19908;-82
2020/12/13 04:44:31;;;;;;;;;;;10.40;83.60;;;;;;5114066;28;19921;-82
2020/12/13 04:47:01;;;;;;;;;;;10.40;83.60;;;;;;5114553;28;19908;-82
2020/12/13 04:49:29;;;;;;;;;;;10.40;83.70;;;;;;5114456;28;20345;-82
2020/12/13 04:51:57;;;;;;;;;;;10.40;83.70;;;;;;5114430;28;19916;-82
2020/12/13 04:54:23;;;;;;;;;;;10.40;84.10;;;;;;5113966;28;19966;-81
2020/12/13 04:56:49;;;;;;;;;;;10.30;84.10;;;;;;5114401;28;19911;-83
2020/12/13 04:59:15;;;;;;;;;;;10.30;84.10;;;;;;5114035;28;19908;-82
2020/12/13 05:01:42;;;;;;;;;;;10.30;84.10;;;;;;5114133;28;19922;-82
2020/12/13 05:04:08;;;;;;;;;;;10.30;84.10;;;;;;5095930;28;19918;-82
2020/12/13 05:06:33;;;;;;;;;;;10.30;84.10;;;;;;5121805;27;19998;-82
2020/12/13 05:08:59;;;;;;;;;;;10.30;84.10;;;;;;5116207;27;20006;-81
2020/12/13 05:11:25;;;;;;;;;;;10.30;84.20;;;;;;5114832;27;20383;-82
2020/12/13 05:13:50;;;;;;;;;;;10.30;84.10;;;;;;5098951;27;19915;-82
2020/12/13 05:16:16;;;;;;;;;;;10.30;84.10;;;;;;5098898;27;19937;-82
2020/12/13 05:18:41;;;;;;;;;;;10.30;84.10;;;;;;5116116;28;19911;-82
2020/12/13 05:21:07;;;;;;;;;;;10.30;84.10;;;;;;5134386;27;19911;-82
2020/12/13 05:23:33;;;;;;;;;;;10.30;84.20;;;;;;5115521;27;19915;-82
2020/12/13 05:25:58;;;;;;;;;;;10.30;84.20;;;;;;5116275;28;19919;-82
2020/12/13 05:28:24;;;;;;;;;;;10.20;84.10;;;;;;5133969;27;20281;-82
2020/12/13 05:30:50;;;;;;;;;;;10.30;84.10;;;;;;5134175;27;19912;-82
2020/12/13 05:33:26;;;;;;;;;;;10.30;84.10;;;;;;5134017;27;20054;-81
2020/12/13 05:36:05;;;;;;;;;;;10.20;84.00;;;;;;5134271;27;19908;-82
2020/12/13 05:38:31;;;;;;;;;;;10.30;84.20;;;;;;5134002;28;19912;-82
2020/12/13 05:40:57;;;;;;;;;;;10.20;83.90;;;;;;5133972;28;19912;-82
2020/12/13 05:43:25;;;;;;;;;;;10.20;83.90;;;;;;5132353;28;19935;-81
2020/12/13 05:53:36;;;;;;;;;;;10.30;83.70;;;;;;5125540;28;20543;-81
2020/12/13 05:56:03;;;;;;;;;;;10.30;83.70;;;;;;5115502;28;19972;-81
2020/12/13 05:58:29;;;;;;;;;;;10.20;83.70;;;;;;5133698;28;19908;-81
2020/12/13 06:00:55;;;;;;;;;;;10.30;83.70;;;;;;5133847;28;19961;-81
2020/12/13 06:03:34;;;;;;;;;;;10.20;83.60;;;;;;5114063;28;20320;-81
2020/12/13 06:06:02;;;;;;;;;;;10.20;83.60;;;;;;5124263;28;19912;-81
2020/12/13 06:08:31;;;;;;;;;;;10.20;83.60;;;;;;5113383;28;19908;-82
2020/12/13 06:10:57;;;;;;;;;;;10.20;83.60;;;;;;5118663;22;20022;-83
2020/12/13 06:13:24;;;;;;;;;;;10.20;83.50;;;;;;5093474;28;20026;-83
2020/12/13 06:15:50;;;;;;;;;;;10.20;83.50;;;;;;5112913;28;19915;-83
2020/12/13 06:18:15;;;;;;;;;;;10.20;83.50;;;;;;5094429;28;19916;-83
2020/12/13 06:20:41;;;;;;;;;;;10.20;83.50;;;;;;5105115;28;19988;-83
2020/12/13 06:23:07;;;;;;;;;;;10.20;83.50;;;;;;5116615;27;19955;-83
2020/12/13 06:25:33;;;;;;;;;;;10.20;83.50;;;;;;5118513;27;19911;-83
2020/12/13 06:27:59;;;;;;;;;;;10.20;83.50;;;;;;5113336;27;19962;-82
2020/12/13 06:30:25;;;;;;;;;;;10.20;83.40;;;;;;5136104;27;19922;-83
2020/12/13 06:32:51;;;;;;;;;;;10.20;83.40;;;;;;5117104;27;19911;-83
2020/12/13 06:35:17;;;;;;;;;;;10.20;83.40;;;;;;5108472;28;19919;-83
2020/12/13 06:37:43;;;;;;;;;;;10.20;83.40;;;;;;5097428;28;19923;-82
2020/12/13 06:40:10;;;;;;;;;;;10.10;83.30;;;;;;5108995;27;20301;-83
2020/12/13 06:42:39;;;;;;;;;;;10.10;83.30;;;;;;5117294;27;19911;-83
2020/12/13 06:45:08;;;;;;;;;;;10.10;83.30;;;;;;5117712;27;20020;-83
2020/12/13 06:47:37;;;;;;;;;;;10.10;83.30;;;;;;5117037;27;19911;-83
2020/12/13 06:50:02;;;;;;;;;;;10.10;83.30;;;;;;5117544;27;19962;-83
2020/12/13 06:52:32;;;;;;;;;;;10.10;83.30;;;;;;5117261;27;19954;-83
2020/12/13 06:55:05;;;;;;;;;;;10.10;83.30;;;;;;5117511;27;20002;-83
2020/12/13 06:57:32;;;;;;;;;;;10.00;83.20;;;;;;5117354;27;20356;-83
2020/12/13 06:59:57;;;;;;;;;;;10.10;83.20;;;;;;5117548;27;19914;-83
2020/12/13 07:02:52;;;;;;;;;;;10.10;83.20;;;;;;5104610;28;19911;-83
2020/12/13 07:05:18;;;;;;;;;;;10.10;83.80;;;;;;5093637;28;20010;-83
2020/12/13 07:07:47;;;;;;;;;;;10.10;83.20;;;;;;5097932;28;19997;-83
2020/12/13 07:10:13;;;;;;;;;;;10.10;83.10;;;;;;5097862;28;19923;-83
2020/12/13 07:12:38;;;;;;;;;;;10.10;83.20;;;;;;5097592;28;20368;-82
2020/12/13 07:15:19;;;;;;;;;;;10.10;83.20;;;;;;5097867;28;19912;-82
2020/12/13 07:17:44;;;;;;;;;;;10.00;83.10;;;;;;5098624;28;19912;-82
2020/12/13 07:20:10;;;;;;;;;;;10.00;83.10;;;;;;5097726;28;20030;-82
2020/12/13 07:22:36;;;;;;;;;;;10.00;83.10;;;;;;5097424;28;20383;-82
2020/12/13 07:25:02;;;;;;;;;;;10.00;83.10;;;;;;5097615;28;19916;-82
2020/12/13 07:27:28;;;;;;;;;;;10.00;83.10;;;;;;5115551;28;19907;-82
2020/12/13 07:29:56;;;;;;;;;;;10.00;83.10;;;;;;5097634;28;19954;-82
2020/12/13 07:32:23;;;;;;;;;;;10.00;83.20;;;;;;5118983;27;20029;-82
2020/12/13 07:34:49;;;;;;;;;;;10.00;83.10;;;;;;5135461;27;19907;-82
2020/12/13 07:37:15;;;;;;;;;;;10.00;83.10;;;;;;5136241;27;19908;-82
2020/12/13 07:39:40;;;;;;;;;;;10.00;83.10;;;;;;5117446;27;19915;-82
2020/12/13 07:42:07;;;;;;;;;;;9.90;83.00;;;;;;5117833;27;19911;-82
2020/12/13 07:44:33;;;;;;;;;;;9.90;83.00;;;;;;5117350;27;19918;-82
2020/12/13 07:46:58;;;;;;;;;;;9.90;83.00;;;;;;5136027;27;19911;-82
2020/12/13 07:49:24;;;;;;;;;;;9.90;83.00;;;;;;5117288;27;19916;-81
2020/12/13 07:51:50;;;;;;;;;;;9.90;83.00;;;;;;5117763;27;19958;-82
2020/12/13 07:54:17;;;;;;;;;;;9.90;83.00;;;;;;5117546;27;20507;-82
2020/12/13 07:56:43;;;;;;;;;;;9.90;82.90;;;;;;5135852;27;19911;-82
2020/12/13 07:59:16;;;;;;;;;;;9.90;83.00;;;;;;5117600;27;19939;-82
2020/12/13 08:01:44;;;;;;;;;;;9.80;82.90;;;;;;5126491;27;19920;-82
2020/12/13 08:04:10;;;;;;;;;;;9.90;82.90;;;;;;5130167;27;19912;-82
2020/12/13 08:06:35;;;;;;;;;;;9.80;82.80;;;;;;5135445;27;19907;-85
2020/12/13 08:09:11;;;;;;;;;;;9.80;82.80;;;;;;5145841;27;19951;-82
2020/12/13 08:11:36;;;;;;;;;;;9.80;82.80;;;;;;5116673;27;20368;-82
2020/12/13 08:14:03;;;;;;;;;;;9.80;82.80;;;;;;5135662;27;19922;-80
2020/12/13 08:16:28;;;;;;;;;;;9.80;82.80;;;;;;5116897;27;20327;-82
2020/12/13 08:18:57;;;;;;;;;;;9.80;82.90;;;;;;5116878;27;19961;-82
2020/12/13 08:21:30;;;;;;;;;;;9.80;82.80;;;;;;5110667;28;19908;-79
2020/12/13 08:23:57;;;;;;;;;;;9.70;82.80;;;;;;5112470;28;19919;-81
2020/12/13 08:26:22;;;;;;;;;;;9.70;82.70;;;;;;5095108;28;20288;-81
2020/12/13 08:28:49;;;;;;;;;;;9.70;82.70;;;;;;5113696;28;19912;-82
2020/12/13 08:31:16;;;;;;;;;;;9.70;82.80;;;;;;5114716;28;19957;-81
2020/12/13 08:33:41;;;;;;;;;;;9.70;82.80;;;;;;5096074;28;19908;-81
2020/12/13 08:36:17;;;;;;;;;;;9.70;82.80;;;;;;5096166;28;19916;-81
2020/12/13 08:38:43;;;;;;;;;;;9.70;82.80;;;;;;5113832;28;19957;-82
2020/12/13 08:41:12;;;;;;;;;;;9.70;82.80;;;;;;5100558;27;20318;-82
2020/12/13 08:43:38;;;;;;;;;;;9.70;83.40;;;;;;5112720;27;19966;-82
2020/12/13 08:46:03;;;;;;;;;;;9.60;82.70;;;;;;5129392;27;19951;-82
2020/12/13 08:48:29;;;;;;;;;;;9.60;82.70;;;;;;5095745;28;20293;-83
2020/12/13 08:51:07;;;;;;;;;;;9.60;82.70;;;;;;5109439;28;19959;-81
2020/12/13 08:53:33;;;;;;;;;;;9.60;82.70;;;;;;5121084;27;19951;-81
2020/12/13 08:56:16;;;;;;;;;;;9.60;82.70;;;;;;5130048;27;20615;-81
2020/12/13 08:58:45;;;;;;;;;;;9.60;82.70;;;;;;5121638;27;19919;-81
2020/12/13 09:01:11;;;;;;;;;;;9.60;82.70;;;;;;5134709;27;19914;-83
2020/12/13 09:03:36;;;;;;;;;;;9.60;82.70;;;;;;5082632;28;19915;-81
2020/12/13 09:06:02;;;;;;;;;;;9.60;83.30;;;;;;5095932;28;19916;-82
2020/12/13 09:08:27;;;;;;;;;;;9.60;82.70;;;;;;5078245;28;19956;-83
2020/12/13 09:10:53;;;;;;;;;;;9.60;82.70;;;;;;5078700;28;19928;-82
2020/12/13 09:13:19;;;;;;;;;;;9.60;82.70;;;;;;5078918;28;19916;-82
2020/12/13 09:15:46;;;;;;;;;;;9.60;82.60;;;;;;5078538;28;22149;-82
2020/12/13 09:18:12;;;;;;;;;;;9.60;82.60;;;;;;5078852;28;19916;-81
2020/12/13 09:20:37;;;;;;;;;;;9.60;82.70;;;;;;5111152;28;20321;-81
2020/12/13 09:23:04;;;;;;;;;;;9.60;82.60;;;;;;5112378;28;19916;-81
2020/12/13 09:25:35;;;;;;;;;;;9.60;82.70;;;;;;5078404;28;19944;-81
2020/12/13 09:28:01;;;;;;;;;;;9.60;82.60;;;;;;5113464;28;19907;-81
2020/12/13 09:30:27;;;;;;;;;;;9.60;82.60;;;;;;5095263;28;19912;-81
2020/12/13 09:32:53;;;;;;;;;;;9.60;82.60;;;;;;5095529;28;20357;-83
2020/12/13 09:35:18;;;;;;;;;;;9.60;82.60;;;;;;5095894;28;19912;-80
2020/12/13 09:37:44;;;;;;;;;;;9.60;82.60;;;;;;5095043;28;20280;-80
2020/12/13 09:40:09;;;;;;;;;;;9.60;82.60;;;;;;5114005;28;19911;-80
2020/12/13 09:42:35;;;;;;;;;;;9.50;82.50;;;;;;5094945;28;19912;-80
2020/12/13 09:45:00;;;;;;;;;;;9.60;82.60;;;;;;5095409;28;20741;-80
2020/12/13 09:47:26;;;;;;;;;;;9.60;82.50;;;;;;5095134;28;19916;-80
2020/12/13 09:49:51;;;;;;;;;;;9.60;82.60;;;;;;5077542;28;19966;-80
2020/12/13 09:52:17;;;;;;;;;;;9.60;82.50;;;;;;5111074;28;19914;-80
2020/12/13 09:54:42;;;;;;;;;;;9.60;82.50;;;;;;5113113;28;19919;-80
2020/12/13 09:57:08;;;;;;;;;;;9.60;82.50;;;;;;5096335;28;20353;-80
2020/12/13 09:59:33;;;;;;;;;;;9.60;82.50;;;;;;5098967;28;19934;-80
2020/12/13 10:01:59;;;;;;;;;;;9.60;82.50;;;;;;5117492;28;19919;-80
2020/12/13 10:04:24;;;;;;;;;;;9.60;82.40;;;;;;5099007;28;19916;-80
2020/12/13 10:09:17;;;;;;;;;;;9.60;82.40;;;;;;5121328;27;19916;-80
2020/12/13 10:11:43;;;;;;;;;;;9.60;82.40;;;;;;5137368;27;20329;-80
2020/12/13 10:14:12;;;;;;;;;;;9.60;82.40;;;;;;5107548;28;19984;-80
2020/12/13 10:16:39;;;;;;;;;;;9.70;82.40;;;;;;5116800;27;19916;-81
2020/12/13 10:19:04;;;;;;;;;;;9.70;82.70;;;;;;5105429;28;19916;-80
2020/12/13 10:21:30;;;;;;;;;;;9.70;82.40;;;;;;5096004;28;20038;-80
2020/12/13 10:23:56;;;;;;;;;;;9.70;82.40;;;;;;5117811;27;19927;-80
2020/12/13 10:26:26;;;;;;;;;;;9.70;82.40;;;;;;5081329;28;19916;-80
2020/12/13 10:28:52;;;;;;;;;;;9.70;82.40;;;;;;5116829;28;19912;-80
2020/12/13 10:31:19;;;;;;;;;;;9.70;82.30;;;;;;5098642;28;20379;-80
2020/12/13 10:33:44;;;;;;;;;;;9.80;82.40;;;;;;5116517;28;19908;-80
2020/12/13 10:36:10;;;;;;;;;;;9.80;82.30;;;;;;5081690;28;20014;-80
2020/12/13 10:38:36;;;;;;;;;;;9.90;82.40;;;;;;5097990;28;19933;-81
2020/12/13 10:41:08;;;;;;;;;;;9.90;82.30;;;;;;5116702;28;19916;-81
2020/12/13 10:43:35;;;;;;;;;;;9.90;82.20;;;;;;5080991;28;19916;-81
2020/12/13 10:46:04;;;;;;;;;;;10.00;82.10;;;;;;5115323;28;19908;-81
2020/12/13 10:48:29;;;;;;;;;;;10.00;82.10;;;;;;5081240;28;19912;-80
2020/12/13 10:50:55;;;;;;;;;;;10.10;82.00;;;;;;5096722;28;19964;-80
2020/12/13 10:53:21;;;;;;;;;;;10.10;81.90;;;;;;5115427;28;19911;-80
2020/12/13 10:55:46;;;;;;;;;;;10.20;81.80;;;;;;5121394;27;19912;-80
2020/12/13 10:58:12;;;;;;;;;;;10.20;81.70;;;;;;5104494;27;19978;-80
2020/12/13 11:00:37;;;;;;;;;;;10.30;81.70;;;;;;5097821;28;19916;-80
2020/12/13 11:03:03;;;;;;;;;;;10.30;81.50;;;;;;5076454;28;19924;-80
2020/12/13 11:05:28;;;;;;;;;;;10.40;81.50;;;;;;5080360;28;19912;-80
2020/12/13 11:07:54;;;;;;;;;;;10.40;81.40;;;;;;5115685;28;19912;-81
2020/12/13 11:10:19;;;;;;;;;;;10.40;81.30;;;;;;5086838;27;19955;-81
2020/12/13 11:12:45;;;;;;;;;;;10.50;81.20;;;;;;5108966;28;19922;-81
2020/12/13 11:15:10;;;;;;;;;;;10.50;81.10;;;;;;5097638;28;20705;-81
2020/12/13 11:17:36;;;;;;;;;;;10.60;81.10;;;;;;5117398;27;19911;-81
2020/12/13 11:20:03;;;;;;;;;;;10.60;81.00;;;;;;5102545;28;20285;-81
2020/12/13 11:22:28;;;;;;;;;;;10.70;81.00;;;;;;5094367;28;20002;-81
2020/12/13 11:24:54;;;;;;;;;;;10.70;80.90;;;;;;5126846;27;20068;-81
2020/12/13 11:27:20;;;;;;;;;;;10.80;80.80;;;;;;5090630;27;19955;-80
2020/12/13 11:29:45;;;;;;;;;;;10.80;80.70;;;;;;5102288;27;19960;-82
2020/12/13 11:32:10;;;;;;;;;;;10.80;80.60;;;;;;5130452;27;19918;-81
2020/12/13 11:34:36;;;;;;;;;;;10.90;80.50;;;;;;5120604;27;20413;-81
2020/12/13 11:37:07;;;;;;;;;;;10.90;80.30;;;;;;5111664;28;19912;-81
2020/12/13 11:39:35;;;;;;;;;;;10.90;80.10;;;;;;5117920;27;19919;-81
2020/12/13 11:42:00;;;;;;;;;;;10.90;80.00;;;;;;5125674;27;19916;-81
2020/12/13 11:44:26;;;;;;;;;;;10.90;79.70;;;;;;5099657;27;19916;-81
2020/12/13 11:46:52;;;;;;;;;;;10.90;79.70;;;;;;5132087;27;19916;-81
2020/12/13 11:49:18;;;;;;;;;;;10.90;79.70;;;;;;5096474;28;20011;-81
2020/12/13 11:51:43;;;;;;;;;;;11.00;79.80;;;;;;5111259;28;19915;-81
2020/12/13 11:54:09;;;;;;;;;;;11.00;79.70;;;;;;5114608;28;19984;-81
2020/12/13 11:56:35;;;;;;;;;;;11.00;79.70;;;;;;5114492;28;19970;-81
2020/12/13 11:59:01;;;;;;;;;;;11.10;79.60;;;;;;5097990;28;19973;-82
2020/12/13 12:01:27;;;;;;;;;;;11.10;79.60;;;;;;5114091;28;20269;-81
2020/12/13 12:03:52;;;;;;;;;;;11.10;79.40;;;;;;5114411;28;20010;-81
2020/12/13 12:06:18;;;;;;;;;;;11.10;79.40;;;;;;5114402;28;19912;-81
2020/12/13 12:08:45;;;;;;;;;;;11.10;79.40;;;;;;5112188;28;20800;-81
2020/12/13 12:11:21;;;;;;;;;;;11.10;79.30;;;;;;5114169;28;19959;-81
2020/12/13 12:13:46;;;;;;;;;;;11.10;79.00;;;;;;5095516;28;19914;-81
2020/12/13 12:16:12;;;;;;;;;;;11.00;79.00;;;;;;5114237;28;20010;-81
2020/12/13 12:18:37;;;;;;;;;;;11.00;78.90;;;;;;5095299;28;19958;-81
2020/12/13 12:21:11;;;;;;;;;;;11.00;79.10;;;;;;5094087;28;19915;-81
2020/12/13 12:23:36;;;;;;;;;;;11.10;79.10;;;;;;5095854;28;19920;-81
2020/12/13 12:26:02;;;;;;;;;;;11.00;78.80;;;;;;5103131;22;19931;-84
2020/12/13 12:28:28;;;;;;;;;;;11.00;78.90;;;;;;5095099;28;19938;-84
2020/12/13 12:30:53;;;;;;;;;;;11.00;78.80;;;;;;5068180;28;20327;-84
2020/12/13 12:33:19;;;;;;;;;;;10.90;78.70;;;;;;5078371;28;20268;-84
2020/12/13 12:35:44;;;;;;;;;;;11.00;78.60;;;;;;5085927;28;19997;-84
2020/12/13 12:38:10;;;;;;;;;;;10.90;78.80;;;;;;5088210;27;20280;-83
2020/12/13 12:40:36;;;;;;;;;;;10.90;78.70;;;;;;5115260;27;19947;-85
2020/12/13 12:43:02;;;;;;;;;;;10.90;78.80;;;;;;5098621;27;20518;-84
2020/12/13 12:45:27;;;;;;;;;;;10.90;78.80;;;;;;5114987;27;19919;-84
2020/12/13 12:47:52;;;;;;;;;;;10.90;78.80;;;;;;5133855;27;19951;-84
2020/12/13 12:50:18;;;;;;;;;;;10.90;78.80;;;;;;5083796;28;19915;-85
2020/12/13 12:52:43;;;;;;;;;;;10.90;78.80;;;;;;5088838;27;19912;-84
2020/12/13 12:55:09;;;;;;;;;;;10.90;78.80;;;;;;5119279;27;19922;-85
2020/12/13 12:57:34;;;;;;;;;;;10.90;78.90;;;;;;5092987;28;19915;-84
2020/12/13 13:02:26;;;;;;;;;;;10.90;78.90;;;;;;5086025;27;20278;-84
2020/12/13 13:05:14;;;;;;;;;;;10.90;78.90;;;;;;5104876;28;19919;-84
2020/12/13 13:07:43;;;;;;;;;;;10.90;78.90;;;;;;5110712;28;19919;-85
2020/12/13 13:10:16;;;;;;;;;;;10.90;78.90;;;;;;5093221;28;19931;-85
2020/12/13 13:12:42;;;;;;;;;;;10.90;78.90;;;;;;5067141;28;19912;-84
2020/12/13 13:15:19;;;;;;;;;;;10.90;79.00;;;;;;5077700;28;20455;-84
2020/12/13 13:17:55;;;;;;;;;;;10.90;79.00;;;;;;5085874;28;19951;-84
2020/12/13 13:20:20;;;;;;;;;;;10.90;78.90;;;;;;5074794;28;19927;-84
2020/12/13 13:22:46;;;;;;;;;;;10.90;78.90;;;;;;5093595;27;19912;-84
2020/12/13 13:25:11;;;;;;;;;;;10.90;79.00;;;;;;5107381;27;20354;-84
2020/12/13 13:27:37;;;;;;;;;;;10.90;79.00;;;;;;5132333;27;19907;-84
2020/12/13 13:30:10;;;;;;;;;;;10.90;78.90;;;;;;5098895;28;20007;-83
2020/12/13 13:32:36;;;;;;;;;;;10.90;79.00;;;;;;5083150;28;19964;-82
2020/12/13 13:35:01;;;;;;;;;;;10.90;79.00;;;;;;5082688;28;19945;-83
2020/12/13 13:37:27;;;;;;;;;;;10.90;79.00;;;;;;5084126;28;20269;-82
2020/12/13 13:39:52;;;;;;;;;;;10.90;78.20;;;;;;5067904;28;20408;-82
2020/12/13 13:42:18;;;;;;;;;;;10.80;78.30;;;;;;5091972;28;19916;-83
2020/12/13 13:44:56;;;;;;;;;;;10.80;78.20;;;;;;5056811;28;19931;-84
2020/12/13 13:50:17;;;;;;;;;;;10.80;78.20;;;;;;5065333;28;20357;-84
2020/12/13 13:52:43;;;;;;;;;;;10.70;77.70;;;;;;5093225;28;19930;-83
2020/12/13 13:55:29;;;;;;;;;;;10.70;77.50;;;;;;5077011;28;19923;-84
2020/12/13 13:57:55;;;;;;;;;;;10.70;77.60;;;;;;5076385;28;20388;-84
2020/12/13 14:00:20;;;;;;;;;;;10.70;78.20;;;;;;5059294;28;20159;-83
2020/12/13 14:02:46;;;;;;;;;;;10.70;77.50;;;;;;5111591;28;19951;-83
2020/12/13 14:05:12;;;;;;;;;;;10.60;77.20;;;;;;5073956;28;19920;-83
2020/12/13 14:10:06;;;;;;;;;;;10.60;77.30;;;;;;5112098;28;19912;-84
2020/12/13 14:12:31;;;;;;;;;;;10.60;77.00;;;;;;5109985;28;19957;-82
2020/12/13 14:14:59;;;;;;;;;;;10.60;77.10;;;;;;5082460;28;19916;-83
2020/12/13 14:17:24;;;;;;;;;;;10.50;76.80;;;;;;5093286;28;19961;-83
2020/12/13 14:19:50;;;;;;;;;;;10.50;76.90;;;;;;5093498;28;19912;-83
2020/12/13 14:22:15;;;;;;;;;;;10.50;76.80;;;;;;5093551;28;19912;-82
2020/12/13 14:24:41;;;;;;;;;;;10.50;76.60;;;;;;5069722;28;20254;-82
2020/12/13 14:27:06;;;;;;;;;;;10.40;76.50;;;;;;5036913;28;20381;-83
2020/12/13 14:29:32;;;;;;;;;;;10.40;76.70;;;;;;5063627;28;19919;-82
2020/12/13 14:31:57;;;;;;;;;;;10.40;76.70;;;;;;5091550;28;19924;-82
2020/12/13 14:34:23;;;;;;;;;;;10.40;76.60;;;;;;5091585;28;19912;-83